sensor_id;sensor_type;location;lat;lon;timestamp;P1;durP1;ratioP1;P2;durP2;ratioP2
45863;SDS011;31579;52.354;16.974;2023-02-22T00:03:35;47.10;;;12.30;;
45863;SDS011;31579;52.354;16.974;2023-02-22T00:08:36;37.50;;;11.20;;
45863;SDS011;31579;52.354;16.974;2023-02-22T00:13:36;37.50;;;11.20;;
45863;SDS011;31579;52.354;16.974;2023-02-22T00:18:37;40.20;;;10.20;;
45863;SDS011;31579;52.354;16.974;2023-02-22T00:23:36;40.20;;;10.20;;
45863;SDS011;31579;52.354;16.974;2023-02-22T00:28:36;29.60;;;9.90;;
45863;SDS011;31579;52.354;16.974;2023-02-22T00:35:16;33.20;;;9.30;;
45863;SDS011;31579;52.354;16.974;2023-02-22T00:40:16;33.20;;;9.30;;
45863;SDS011;31579;52.354;16.974;2023-02-22T00:45:16;39.10;;;9.90;;
45863;SDS011;31579;52.354;16.974;2023-02-22T00:50:16;39.10;;;9.90;;
45863;SDS011;31579;52.354;16.974;2023-02-22T00:55:17;41.00;;;10.50;;
45863;SDS011;31579;52.354;16.974;2023-02-22T01:00:18;41.00;;;10.50;;
45863;SDS011;31579;52.354;16.974;2023-02-22T01:05:17;33.10;;;9.70;;
45863;SDS011;31579;52.354;16.974;2023-02-22T01:10:17;33.10;;;9.70;;
45863;SDS011;31579;52.354;16.974;2023-02-22T01:15:17;32.00;;;8.30;;
45863;SDS011;31579;52.354;16.974;2023-02-22T01:17:50;32.00;;;8.30;;
45863;SDS011;31579;52.354;16.974;2023-02-22T01:22:48;32.00;;;8.30;;
45863;SDS011;31579;52.354;16.974;2023-02-22T01:27:47;26.40;;;9.30;;
45863;SDS011;31579;52.354;16.974;2023-02-22T01:32:47;26.40;;;9.30;;
45863;SDS011;31579;52.354;16.974;2023-02-22T01:37:47;25.90;;;8.20;;
45863;SDS011;31579;52.354;16.974;2023-02-22T01:42:50;25.90;;;8.20;;
45863;SDS011;31579;52.354;16.974;2023-02-22T01:47:47;24.10;;;6.20;;
45863;SDS011;31579;52.354;16.974;2023-02-22T01:52:47;24.10;;;6.20;;
45863;SDS011;31579;52.354;16.974;2023-02-22T02:01:53;27.00;;;5.90;;
45863;SDS011;31579;52.354;16.974;2023-02-22T02:06:53;26.00;;;6.30;;
45863;SDS011;31579;52.354;16.974;2023-02-22T02:11:53;26.00;;;6.30;;
45863;SDS011;31579;52.354;16.974;2023-02-22T02:16:53;27.00;;;6.10;;
45863;SDS011;31579;52.354;16.974;2023-02-22T02:22:06;27.00;;;6.10;;
45863;SDS011;31579;52.354;16.974;2023-02-22T02:41:53;25.80;;;6.90;;
45863;SDS011;31579;52.354;16.974;2023-02-22T02:46:55;27.50;;;6.60;;
45863;SDS011;31579;52.354;16.974;2023-02-22T02:51:53;27.50;;;6.60;;
45863;SDS011;31579;52.354;16.974;2023-02-22T02:56:57;25.60;;;6.20;;
45863;SDS011;31579;52.354;16.974;2023-02-22T03:22:00;29.90;;;6.80;;
45863;SDS011;31579;52.354;16.974;2023-02-22T03:28:13;30.80;;;6.60;;
45863;SDS011;31579;52.354;16.974;2023-02-22T03:33:16;30.80;;;6.60;;
45863;SDS011;31579;52.354;16.974;2023-02-22T03:38:13;35.80;;;7.10;;
45863;SDS011;31579;52.354;16.974;2023-02-22T03:43:13;35.80;;;7.10;;
45863;SDS011;31579;52.354;16.974;2023-02-22T03:48:24;33.70;;;8.00;;
45863;SDS011;31579;52.354;16.974;2023-02-22T03:53:12;33.70;;;8.00;;
45863;SDS011;31579;52.354;16.974;2023-02-22T03:58:12;39.80;;;10.20;;
45863;SDS011;31579;52.354;16.974;2023-02-22T04:03:12;39.80;;;10.20;;
45863;SDS011;31579;52.354;16.974;2023-02-22T04:08:12;29.00;;;7.90;;
45863;SDS011;31579;52.354;16.974;2023-02-22T04:13:12;29.00;;;7.90;;
45863;SDS011;31579;52.354;16.974;2023-02-22T04:18:12;41.00;;;13.10;;
45863;SDS011;31579;52.354;16.974;2023-02-22T04:23:12;41.00;;;13.10;;
45863;SDS011;31579;52.354;16.974;2023-02-22T04:28:12;43.60;;;12.00;;
45863;SDS011;31579;52.354;16.974;2023-02-22T04:33:13;43.60;;;12.00;;
45863;SDS011;31579;52.354;16.974;2023-02-22T04:38:13;39.00;;;11.60;;
45863;SDS011;31579;52.354;16.974;2023-02-22T04:43:12;39.00;;;11.60;;
45863;SDS011;31579;52.354;16.974;2023-02-22T04:48:12;28.70;;;8.50;;
45863;SDS011;31579;52.354;16.974;2023-02-22T04:53:12;28.70;;;8.50;;
45863;SDS011;31579;52.354;16.974;2023-02-22T04:58:12;31.30;;;9.60;;
45863;SDS011;31579;52.354;16.974;2023-02-22T05:03:13;31.30;;;9.60;;
45863;SDS011;31579;52.354;16.974;2023-02-22T05:08:13;33.90;;;10.40;;
45863;SDS011;31579;52.354;16.974;2023-02-22T05:13:12;33.90;;;10.40;;
45863;SDS011;31579;52.354;16.974;2023-02-22T05:18:13;42.40;;;11.60;;
45863;SDS011;31579;52.354;16.974;2023-02-22T05:23:13;42.40;;;11.60;;
45863;SDS011;31579;52.354;16.974;2023-02-22T05:28:13;41.80;;;12.60;;
45863;SDS011;31579;52.354;16.974;2023-02-22T05:33:12;41.80;;;12.60;;
45863;SDS011;31579;52.354;16.974;2023-02-22T05:38:13;44.80;;;12.50;;
45863;SDS011;31579;52.354;16.974;2023-02-22T05:40:07;44.80;;;12.50;;
45863;SDS011;31579;52.354;16.974;2023-02-22T05:45:05;32.80;;;11.50;;
45863;SDS011;31579;52.354;16.974;2023-02-22T05:50:05;32.80;;;11.50;;
45863;SDS011;31579;52.354;16.974;2023-02-22T05:55:05;36.10;;;10.10;;
45863;SDS011;31579;52.354;16.974;2023-02-22T06:00:05;36.10;;;10.10;;
45863;SDS011;31579;52.354;16.974;2023-02-22T06:05:05;36.50;;;10.10;;
45863;SDS011;31579;52.354;16.974;2023-02-22T06:10:05;36.50;;;10.10;;
45863;SDS011;31579;52.354;16.974;2023-02-22T06:13:50;41.80;;;13.00;;
45863;SDS011;31579;52.354;16.974;2023-02-22T06:18:48;41.80;;;13.00;;
45863;SDS011;31579;52.354;16.974;2023-02-22T06:23:48;41.80;;;13.00;;
45863;SDS011;31579;52.354;16.974;2023-02-22T06:28:48;51.90;;;16.70;;
45863;SDS011;31579;52.354;16.974;2023-02-22T06:33:48;37.00;;;13.30;;
45863;SDS011;31579;52.354;16.974;2023-02-22T06:38:48;37.00;;;13.30;;
45863;SDS011;31579;52.354;16.974;2023-02-22T06:43:48;53.50;;;18.60;;
45863;SDS011;31579;52.354;16.974;2023-02-22T06:48:48;53.50;;;18.60;;
45863;SDS011;31579;52.354;16.974;2023-02-22T06:53:48;32.70;;;12.20;;
45863;SDS011;31579;52.354;16.974;2023-02-22T06:58:48;32.70;;;12.20;;
45863;SDS011;31579;52.354;16.974;2023-02-22T07:03:48;58.90;;;19.50;;
45863;SDS011;31579;52.354;16.974;2023-02-22T07:08:48;58.90;;;19.50;;
45863;SDS011;31579;52.354;16.974;2023-02-22T07:13:48;54.50;;;18.60;;
45863;SDS011;31579;52.354;16.974;2023-02-22T07:18:48;54.50;;;18.60;;
45863;SDS011;31579;52.354;16.974;2023-02-22T07:23:52;49.60;;;15.70;;
45863;SDS011;31579;52.354;16.974;2023-02-22T07:28:48;49.60;;;15.70;;
45863;SDS011;31579;52.354;16.974;2023-02-22T07:33:48;44.20;;;15.80;;
45863;SDS011;31579;52.354;16.974;2023-02-22T07:39:54;44.20;;;15.80;;
45863;SDS011;31579;52.354;16.974;2023-02-22T07:44:54;36.40;;;13.30;;
45863;SDS011;31579;52.354;16.974;2023-02-22T07:49:54;36.40;;;13.30;;
45863;SDS011;31579;52.354;16.974;2023-02-22T07:54:54;40.00;;;15.30;;
45863;SDS011;31579;52.354;16.974;2023-02-22T07:59:54;40.00;;;15.30;;
45863;SDS011;31579;52.354;16.974;2023-02-22T08:04:54;29.70;;;11.90;;
45863;SDS011;31579;52.354;16.974;2023-02-22T08:09:54;29.70;;;11.90;;
45863;SDS011;31579;52.354;16.974;2023-02-22T08:14:54;30.90;;;11.60;;
45863;SDS011;31579;52.354;16.974;2023-02-22T08:19:54;30.90;;;11.60;;
45863;SDS011;31579;52.354;16.974;2023-02-22T08:24:54;30.40;;;10.10;;
45863;SDS011;31579;52.354;16.974;2023-02-22T08:29:54;30.40;;;10.10;;
45863;SDS011;31579;52.354;16.974;2023-02-22T08:34:58;28.50;;;10.70;;
45863;SDS011;31579;52.354;16.974;2023-02-22T08:39:54;28.50;;;10.70;;
45863;SDS011;31579;52.354;16.974;2023-02-22T08:44:54;28.80;;;10.60;;
45863;SDS011;31579;52.354;16.974;2023-02-22T08:49:54;28.80;;;10.60;;
45863;SDS011;31579;52.354;16.974;2023-02-22T08:54:57;26.70;;;10.60;;
45863;SDS011;31579;52.354;16.974;2023-02-22T08:59:54;26.70;;;10.60;;
45863;SDS011;31579;52.354;16.974;2023-02-22T09:04:54;28.20;;;11.90;;
45863;SDS011;31579;52.354;16.974;2023-02-22T09:09:54;28.20;;;11.90;;
45863;SDS011;31579;52.354;16.974;2023-02-22T09:14:55;24.20;;;11.50;;
45863;SDS011;31579;52.354;16.974;2023-02-22T09:19:54;24.20;;;11.50;;
45863;SDS011;31579;52.354;16.974;2023-02-22T09:24:54;28.20;;;13.20;;
45863;SDS011;31579;52.354;16.974;2023-02-22T09:29:39;28.20;;;13.20;;
45863;SDS011;31579;52.354;16.974;2023-02-22T09:34:37;30.10;;;13.50;;
45863;SDS011;31579;52.354;16.974;2023-02-22T09:35:09;30.10;;;13.50;;
45863;SDS011;31579;52.354;16.974;2023-02-22T09:40:08;30.10;;;13.50;;
45863;SDS011;31579;52.354;16.974;2023-02-22T09:45:14;27.90;;;13.70;;
45863;SDS011;31579;52.354;16.974;2023-02-22T09:50:12;27.90;;;13.70;;
45863;SDS011;31579;52.354;16.974;2023-02-22T09:59:14;26.30;;;12.80;;
45863;SDS011;31579;52.354;16.974;2023-02-22T10:09:16;30.60;;;12.60;;
45863;SDS011;31579;52.354;16.974;2023-02-22T10:34:15;18.30;;;11.10;;
45863;SDS011;31579;52.354;16.974;2023-02-22T10:39:31;18.30;;;11.10;;
45863;SDS011;31579;52.354;16.974;2023-02-22T10:44:13;23.50;;;11.90;;
45863;SDS011;31579;52.354;16.974;2023-02-22T10:49:17;23.50;;;11.90;;
45863;SDS011;31579;52.354;16.974;2023-02-22T10:59:25;22.50;;;11.70;;
45863;SDS011;31579;52.354;16.974;2023-02-22T11:04:15;23.60;;;11.90;;
45863;SDS011;31579;52.354;16.974;2023-02-22T11:09:15;23.60;;;11.90;;
45863;SDS011;31579;52.354;16.974;2023-02-22T11:21:05;19.80;;;10.10;;
45863;SDS011;31579;52.354;16.974;2023-02-22T11:40:14;19.70;;;9.70;;
45863;SDS011;31579;52.354;16.974;2023-02-22T11:50:03;20.20;;;10.00;;
45863;SDS011;31579;52.354;16.974;2023-02-22T12:25:05;20.20;;;8.70;;
45863;SDS011;31579;52.354;16.974;2023-02-22T12:30:13;20.20;;;8.70;;
45863;SDS011;31579;52.354;16.974;2023-02-22T12:35:08;20.30;;;7.70;;
45863;SDS011;31579;52.354;16.974;2023-02-22T12:45:07;15.60;;;6.90;;
45863;SDS011;31579;52.354;16.974;2023-02-22T12:50:08;15.60;;;6.90;;
45863;SDS011;31579;52.354;16.974;2023-02-22T13:00:06;13.00;;;5.50;;
45863;SDS011;31579;52.354;16.974;2023-02-22T13:05:03;19.10;;;6.80;;
45863;SDS011;31579;52.354;16.974;2023-02-22T13:25:18;13.60;;;4.80;;
45863;SDS011;31579;52.354;16.974;2023-02-22T13:53:05;12.50;;;4.20;;
45863;SDS011;31579;52.354;16.974;2023-02-22T13:58:04;12.50;;;4.20;;
45863;SDS011;31579;52.354;16.974;2023-02-22T14:08:00;8.40;;;3.90;;
45863;SDS011;31579;52.354;16.974;2023-02-22T14:28:00;11.70;;;4.10;;
45863;SDS011;31579;52.354;16.974;2023-02-22T14:33:48;11.30;;;3.60;;
45863;SDS011;31579;52.354;16.974;2023-02-22T14:38:00;11.30;;;3.60;;
45863;SDS011;31579;52.354;16.974;2023-02-22T14:43:03;12.90;;;4.00;;
45863;SDS011;31579;52.354;16.974;2023-02-22T14:53:03;10.00;;;3.90;;
45863;SDS011;31579;52.354;16.974;2023-02-22T14:58:04;10.00;;;3.90;;
45863;SDS011;31579;52.354;16.974;2023-02-22T15:03:00;11.80;;;4.60;;
45863;SDS011;31579;52.354;16.974;2023-02-22T15:08:01;11.80;;;4.60;;
45863;SDS011;31579;52.354;16.974;2023-02-22T15:13:01;9.40;;;3.80;;
45863;SDS011;31579;52.354;16.974;2023-02-22T15:18:00;9.40;;;3.80;;
45863;SDS011;31579;52.354;16.974;2023-02-22T15:23:00;9.40;;;3.80;;
45863;SDS011;31579;52.354;16.974;2023-02-22T15:28:00;14.90;;;4.80;;
45863;SDS011;31579;52.354;16.974;2023-02-22T15:33:09;13.50;;;5.10;;
45863;SDS011;31579;52.354;16.974;2023-02-22T15:38:05;13.50;;;5.10;;
45863;SDS011;31579;52.354;16.974;2023-02-22T15:43:00;11.40;;;5.10;;
45863;SDS011;31579;52.354;16.974;2023-02-22T15:48:00;11.40;;;5.10;;
45863;SDS011;31579;52.354;16.974;2023-02-22T15:58:07;12.60;;;4.20;;
45863;SDS011;31579;52.354;16.974;2023-02-22T16:03:03;10.60;;;5.30;;
45863;SDS011;31579;52.354;16.974;2023-02-22T16:13:02;14.70;;;6.50;;
45863;SDS011;31579;52.354;16.974;2023-02-22T16:23:20;17.60;;;6.70;;
45863;SDS011;31579;52.354;16.974;2023-02-22T16:28:03;17.60;;;6.70;;
45863;SDS011;31579;52.354;16.974;2023-02-22T16:33:04;17.00;;;7.90;;
45863;SDS011;31579;52.354;16.974;2023-02-22T16:43:03;15.10;;;7.90;;
45863;SDS011;31579;52.354;16.974;2023-02-22T16:48:10;15.10;;;7.90;;
45863;SDS011;31579;52.354;16.974;2023-02-22T16:53:01;16.00;;;7.30;;
45863;SDS011;31579;52.354;16.974;2023-02-22T16:58:02;16.00;;;7.30;;
45863;SDS011;31579;52.354;16.974;2023-02-22T17:03:02;17.40;;;7.90;;
45863;SDS011;31579;52.354;16.974;2023-02-22T17:15:20;16.20;;;7.00;;
45863;SDS011;31579;52.354;16.974;2023-02-22T17:20:17;16.20;;;7.00;;
45863;SDS011;31579;52.354;16.974;2023-02-22T17:25:19;14.60;;;6.60;;
45863;SDS011;31579;52.354;16.974;2023-02-22T17:30:17;14.60;;;6.60;;
45863;SDS011;31579;52.354;16.974;2023-02-22T17:35:17;16.20;;;7.90;;
45863;SDS011;31579;52.354;16.974;2023-02-22T17:40:17;16.20;;;7.90;;
45863;SDS011;31579;52.354;16.974;2023-02-22T17:47:13;16.20;;;7.90;;
45863;SDS011;31579;52.354;16.974;2023-02-22T17:52:13;16.20;;;7.90;;
45863;SDS011;31579;52.354;16.974;2023-02-22T17:57:13;17.70;;;7.80;;
45863;SDS011;31579;52.354;16.974;2023-02-22T18:02:13;17.70;;;7.80;;
45863;SDS011;31579;52.354;16.974;2023-02-22T18:07:13;16.80;;;8.30;;
45863;SDS011;31579;52.354;16.974;2023-02-22T18:12:13;16.80;;;8.30;;
45863;SDS011;31579;52.354;16.974;2023-02-22T18:17:13;25.80;;;12.60;;
45863;SDS011;31579;52.354;16.974;2023-02-22T18:22:13;25.80;;;12.60;;
45863;SDS011;31579;52.354;16.974;2023-02-22T18:27:13;33.10;;;16.20;;
45863;SDS011;31579;52.354;16.974;2023-02-22T18:32:13;33.10;;;16.20;;
45863;SDS011;31579;52.354;16.974;2023-02-22T18:37:13;28.70;;;14.60;;
45863;SDS011;31579;52.354;16.974;2023-02-22T18:42:17;28.70;;;14.60;;
45863;SDS011;31579;52.354;16.974;2023-02-22T18:47:13;34.40;;;15.80;;
45863;SDS011;31579;52.354;16.974;2023-02-22T18:52:14;34.40;;;15.80;;
45863;SDS011;31579;52.354;16.974;2023-02-22T18:57:13;26.20;;;14.30;;
45863;SDS011;31579;52.354;16.974;2023-02-22T19:02:38;26.20;;;14.30;;
45863;SDS011;31579;52.354;16.974;2023-02-22T19:07:37;31.70;;;14.50;;
45863;SDS011;31579;52.354;16.974;2023-02-22T19:12:36;31.20;;;14.10;;
45863;SDS011;31579;52.354;16.974;2023-02-22T19:17:36;31.20;;;14.10;;
45863;SDS011;31579;52.354;16.974;2023-02-22T19:22:36;33.00;;;16.30;;
45863;SDS011;31579;52.354;16.974;2023-02-22T19:27:36;33.00;;;16.30;;
45863;SDS011;31579;52.354;16.974;2023-02-22T19:32:36;34.30;;;16.10;;
45863;SDS011;31579;52.354;16.974;2023-02-22T19:37:36;34.30;;;16.10;;
45863;SDS011;31579;52.354;16.974;2023-02-22T19:42:36;31.70;;;15.30;;
45863;SDS011;31579;52.354;16.974;2023-02-22T19:47:36;31.70;;;15.30;;
45863;SDS011;31579;52.354;16.974;2023-02-22T19:52:36;32.20;;;15.90;;
45863;SDS011;31579;52.354;16.974;2023-02-22T20:02:38;37.60;;;16.80;;
45863;SDS011;31579;52.354;16.974;2023-02-22T20:07:36;37.60;;;16.80;;
45863;SDS011;31579;52.354;16.974;2023-02-22T20:12:36;37.80;;;17.10;;
45863;SDS011;31579;52.354;16.974;2023-02-22T20:17:36;37.80;;;17.10;;
45863;SDS011;31579;52.354;16.974;2023-02-22T20:22:42;35.80;;;17.90;;
45863;SDS011;31579;52.354;16.974;2023-02-22T20:27:37;35.80;;;17.90;;
45863;SDS011;31579;52.354;16.974;2023-02-22T20:32:37;35.60;;;17.00;;
45863;SDS011;31579;52.354;16.974;2023-02-22T20:37:37;35.60;;;17.00;;
45863;SDS011;31579;52.354;16.974;2023-02-22T20:42:38;33.90;;;16.30;;
45863;SDS011;31579;52.354;16.974;2023-02-22T20:47:37;33.90;;;16.30;;
45863;SDS011;31579;52.354;16.974;2023-02-22T20:52:36;33.90;;;16.40;;
45863;SDS011;31579;52.354;16.974;2023-02-22T20:57:37;33.90;;;16.40;;
45863;SDS011;31579;52.354;16.974;2023-02-22T21:02:37;34.00;;;16.60;;
45863;SDS011;31579;52.354;16.974;2023-02-22T21:07:37;34.00;;;16.60;;
45863;SDS011;31579;52.354;16.974;2023-02-22T21:12:37;33.20;;;15.60;;
45863;SDS011;31579;52.354;16.974;2023-02-22T21:17:37;33.20;;;15.60;;
45863;SDS011;31579;52.354;16.974;2023-02-22T21:22:37;29.60;;;14.60;;
45863;SDS011;31579;52.354;16.974;2023-02-22T21:27:37;29.60;;;14.60;;
45863;SDS011;31579;52.354;16.974;2023-02-22T21:32:36;30.90;;;14.60;;
45863;SDS011;31579;52.354;16.974;2023-02-22T21:37:37;30.90;;;14.60;;
45863;SDS011;31579;52.354;16.974;2023-02-22T21:42:37;28.10;;;13.10;;
45863;SDS011;31579;52.354;16.974;2023-02-22T21:47:37;28.10;;;13.10;;
45863;SDS011;31579;52.354;16.974;2023-02-22T21:52:37;26.80;;;13.20;;
45863;SDS011;31579;52.354;16.974;2023-02-22T21:57:37;26.80;;;13.20;;
45863;SDS011;31579;52.354;16.974;2023-02-22T22:02:37;30.50;;;13.30;;
45863;SDS011;31579;52.354;16.974;2023-02-22T22:07:37;30.50;;;13.30;;
45863;SDS011;31579;52.354;16.974;2023-02-22T22:12:37;32.60;;;14.10;;
45863;SDS011;31579;52.354;16.974;2023-02-22T22:16:15;32.60;;;14.10;;
45863;SDS011;31579;52.354;16.974;2023-02-22T22:21:16;32.60;;;14.10;;
45863;SDS011;31579;52.354;16.974;2023-02-22T22:26:14;29.40;;;13.00;;
45863;SDS011;31579;52.354;16.974;2023-02-22T22:31:14;29.40;;;13.00;;
45863;SDS011;31579;52.354;16.974;2023-02-22T22:36:14;24.40;;;11.60;;
45863;SDS011;31579;52.354;16.974;2023-02-22T22:41:14;24.40;;;11.60;;
45863;SDS011;31579;52.354;16.974;2023-02-22T22:46:14;30.00;;;12.30;;
45863;SDS011;31579;52.354;16.974;2023-02-22T22:51:15;30.00;;;12.30;;
45863;SDS011;31579;52.354;16.974;2023-02-22T22:56:16;27.20;;;12.10;;
45863;SDS011;31579;52.354;16.974;2023-02-22T22:56:21;27.20;;;12.10;;
45863;SDS011;31579;52.354;16.974;2023-02-22T23:01:19;27.20;;;12.10;;
45863;SDS011;31579;52.354;16.974;2023-02-22T23:06:18;24.10;;;11.00;;
45863;SDS011;31579;52.354;16.974;2023-02-22T23:11:18;24.10;;;11.00;;
45863;SDS011;31579;52.354;16.974;2023-02-22T23:16:18;29.80;;;11.80;;
45863;SDS011;31579;52.354;16.974;2023-02-22T23:21:18;29.80;;;11.80;;
45863;SDS011;31579;52.354;16.974;2023-02-22T23:26:18;24.60;;;11.50;;
45863;SDS011;31579;52.354;16.974;2023-02-22T23:31:18;24.60;;;11.50;;
45863;SDS011;31579;52.354;16.974;2023-02-22T23:36:18;21.80;;;10.00;;
45863;SDS011;31579;52.354;16.974;2023-02-22T23:41:18;21.80;;;10.00;;
45863;SDS011;31579;52.354;16.974;2023-02-22T23:46:18;24.80;;;10.50;;
45863;SDS011;31579;52.354;16.974;2023-02-22T23:55:04;24.10;;;10.60;;
